Pagina principale
METAR-TAF:

METAR-TAF

Aeroporti :

Montichiari

Brescia, Italia

latitudine: 45-24-02N, longitudine: 010-18-59E, altezza: 104 m

Osservazione

Il bollettino è stato emesso 23 minuti fa, alle 10:50 UTC
Vento 4 kt da sud
Temperature 7°C
Umidità 53%
Pressione 1019 hPa
Visibilità 10 km o più
nessuna nube inferiore a 1500 m e nessun cumulonembo

METAR: LIPO 161050Z 19004KT CAVOK 07/M02 Q1019

Ora: 12:13 (11:13 UTC)

Previsione

Il bollettino è stato emesso 6 ore e 13 minuti fa, alle 05:00 UTC
Previsione valida dal 16 alle 06 UTC al 17 alle 06 UTC
Vento 5 kt da direzioni variabili
Visibilità 10 km o più
nessuna nube inferiore a 1500 m e nessun cumulonembo
Evoluzione graduale
dal 17 alle 01 UTC al 17 alle 03 UTC
Visibilità: 3000 m
Nuvoloso ad un'altezza di 1000 ft
pioviggine

TAF: LIPO 160500Z 1606/1706 VRB05KT CAVOK BECMG 1701/1703 3000 DZ BKN010

Osservazioni e previsioni meteorologiche di più di 4000 aeroporti (messaggi METAR e TAF).

Le stazioni disponibili sono rappresentate dai dischi gialli e rossi sulla carta.

Puntare il mouse per vedere il nome della stazione.

Clicca sopra per visualizzare le osservazioni e previsioni meteorologiche.

Per cambiare la mappa : fare clic sui pulsanti verdi con una croce nera per ingrandire, il pulsante verde con un trattino per diminuire, o sulla freccia verde per le mappe adiacenti.


METAR-TAF: